sensor_id;sensor_type;location;lat;lon;timestamp;pressure;altitude;pressure_sealevel;temperature;humidity
16194;BME280;8204;53.582;10.080;2023-04-15T00:00:07;100263.50;;;11.09;100.00
16194;BME280;8204;53.582;10.080;2023-04-15T00:02:37;100252.19;;;11.09;100.00
16194;BME280;8204;53.582;10.080;2023-04-15T00:05:06;100230.06;;;11.11;100.00
16194;BME280;8204;53.582;10.080;2023-04-15T00:07:39;100244.19;;;11.02;100.00
16194;BME280;8204;53.582;10.080;2023-04-15T00:10:08;100228.69;;;10.93;100.00
16194;BME280;8204;53.582;10.080;2023-04-15T00:12:37;100196.44;;;10.92;100.00
16194;BME280;8204;53.582;10.080;2023-04-15T00:15:07;100184.31;;;10.91;100.00
16194;BME280;8204;53.582;10.080;2023-04-15T00:17:42;100166.78;;;10.92;100.00
16194;BME280;8204;53.582;10.080;2023-04-15T00:20:11;100149.25;;;10.92;100.00
16194;BME280;8204;53.582;10.080;2023-04-15T00:22:43;100134.66;;;10.98;100.00
16194;BME280;8204;53.582;10.080;2023-04-15T00:25:12;100117.44;;;10.95;100.00
16194;BME280;8204;53.582;10.080;2023-04-15T00:27:41;100119.38;;;11.01;100.00
16194;BME280;8204;53.582;10.080;2023-04-15T00:30:10;100102.81;;;11.01;100.00
16194;BME280;8204;53.582;10.080;2023-04-15T00:32:39;100101.50;;;11.05;100.00
16194;BME280;8204;53.582;10.080;2023-04-15T00:35:08;100103.47;;;11.03;100.00
16194;BME280;8204;53.582;10.080;2023-04-15T00:37:37;100122.34;;;10.98;100.00
16194;BME280;8204;53.582;10.080;2023-04-15T00:40:11;100108.94;;;10.93;100.00
16194;BME280;8204;53.582;10.080;2023-04-15T00:42:41;100101.44;;;10.90;100.00
16194;BME280;8204;53.582;10.080;2023-04-15T00:45:10;100087.25;;;10.85;100.00
16194;BME280;8204;53.582;10.080;2023-04-15T00:47:40;100066.63;;;10.82;100.00
16194;BME280;8204;53.582;10.080;2023-04-15T00:50:11;100044.66;;;10.83;100.00
16194;BME280;8204;53.582;10.080;2023-04-15T00:52:43;100037.97;;;10.81;100.00
16194;BME280;8204;53.582;10.080;2023-04-15T00:55:15;100020.97;;;10.77;100.00
16194;BME280;8204;53.582;10.080;2023-04-15T00:57:44;100018.63;;;10.82;100.00
16194;BME280;8204;53.582;10.080;2023-04-15T01:00:14;99994.41;;;10.80;100.00
16194;BME280;8204;53.582;10.080;2023-04-15T01:02:42;99977.50;;;10.82;100.00
16194;BME280;8204;53.582;10.080;2023-04-15T01:05:12;99981.94;;;10.82;100.00
16194;BME280;8204;53.582;10.080;2023-04-15T01:07:42;99961.44;;;10.85;100.00
16194;BME280;8204;53.582;10.080;2023-04-15T01:10:12;99952.41;;;10.88;100.00
16194;BME280;8204;53.582;10.080;2023-04-15T01:12:43;99969.38;;;10.77;100.00
16194;BME280;8204;53.582;10.080;2023-04-15T01:15:13;99955.16;;;10.72;100.00
16194;BME280;8204;53.582;10.080;2023-04-15T01:17:42;99922.09;;;10.71;100.00
16194;BME280;8204;53.582;10.080;2023-04-15T01:20:12;99904.84;;;10.76;100.00
16194;BME280;8204;53.582;10.080;2023-04-15T01:22:42;99894.56;;;10.75;100.00
16194;BME280;8204;53.582;10.080;2023-04-15T01:25:15;99879.47;;;10.77;100.00
16194;BME280;8204;53.582;10.080;2023-04-15T01:27:47;99845.03;;;10.80;100.00
16194;BME280;8204;53.582;10.080;2023-04-15T01:30:16;99844.06;;;10.81;100.00
16194;BME280;8204;53.582;10.080;2023-04-15T01:32:45;99820.72;;;10.86;100.00
16194;BME280;8204;53.582;10.080;2023-04-15T01:35:14;99846.47;;;10.82;100.00
16194;BME280;8204;53.582;10.080;2023-04-15T01:37:44;99840.78;;;10.79;100.00
16194;BME280;8204;53.582;10.080;2023-04-15T01:40:13;99825.25;;;10.77;100.00
16194;BME280;8204;53.582;10.080;2023-04-15T01:42:42;99814.97;;;10.76;100.00
16194;BME280;8204;53.582;10.080;2023-04-15T01:45:14;99825.00;;;10.72;100.00
16194;BME280;8204;53.582;10.080;2023-04-15T01:47:43;99809.63;;;10.69;100.00
16194;BME280;8204;53.582;10.080;2023-04-15T01:50:12;99807.09;;;10.61;100.00
16194;BME280;8204;53.582;10.080;2023-04-15T01:52:41;99791.19;;;10.63;100.00
16194;BME280;8204;53.582;10.080;2023-04-15T01:55:10;99772.84;;;10.63;100.00
16194;BME280;8204;53.582;10.080;2023-04-15T01:57:39;99766.81;;;10.62;100.00
16194;BME280;8204;53.582;10.080;2023-04-15T02:00:09;99750.44;;;10.60;100.00
16194;BME280;8204;53.582;10.080;2023-04-15T02:02:41;99764.28;;;10.54;100.00
16194;BME280;8204;53.582;10.080;2023-04-15T02:05:09;99719.22;;;10.59;100.00
16194;BME280;8204;53.582;10.080;2023-04-15T02:07:38;99704.94;;;10.61;100.00
16194;BME280;8204;53.582;10.080;2023-04-15T02:10:08;99703.69;;;10.57;100.00
16194;BME280;8204;53.582;10.080;2023-04-15T02:12:40;99695.09;;;10.63;100.00
16194;BME280;8204;53.582;10.080;2023-04-15T02:15:09;99683.97;;;10.61;100.00
16194;BME280;8204;53.582;10.080;2023-04-15T02:17:41;99669.25;;;10.60;100.00
16194;BME280;8204;53.582;10.080;2023-04-15T02:20:18;99681.91;;;10.57;100.00
16194;BME280;8204;53.582;10.080;2023-04-15T02:22:48;99662.78;;;10.56;100.00
16194;BME280;8204;53.582;10.080;2023-04-15T02:25:17;99644.00;;;10.53;100.00
16194;BME280;8204;53.582;10.080;2023-04-15T02:27:46;99617.88;;;10.59;100.00
16194;BME280;8204;53.582;10.080;2023-04-15T02:30:15;99615.28;;;10.59;100.00
16194;BME280;8204;53.582;10.080;2023-04-15T02:32:47;99620.91;;;10.63;100.00
16194;BME280;8204;53.582;10.080;2023-04-15T02:35:16;99646.94;;;10.64;100.00
16194;BME280;8204;53.582;10.080;2023-04-15T02:37:45;99638.09;;;10.65;100.00
16194;BME280;8204;53.582;10.080;2023-04-15T02:40:14;99629.50;;;10.71;100.00
16194;BME280;8204;53.582;10.080;2023-04-15T02:42:44;99636.72;;;10.69;100.00
16194;BME280;8204;53.582;10.080;2023-04-15T02:45:13;99640.78;;;10.72;100.00
16194;BME280;8204;53.582;10.080;2023-04-15T02:47:46;99648.00;;;10.70;100.00
16194;BME280;8204;53.582;10.080;2023-04-15T02:50:15;99629.06;;;10.68;100.00
16194;BME280;8204;53.582;10.080;2023-04-15T02:52:44;99619.19;;;10.70;100.00
16194;BME280;8204;53.582;10.080;2023-04-15T02:55:13;99621.63;;;10.71;100.00
16194;BME280;8204;53.582;10.080;2023-04-15T02:57:43;99627.03;;;10.70;100.00
16194;BME280;8204;53.582;10.080;2023-04-15T03:00:13;99620.19;;;10.69;100.00
16194;BME280;8204;53.582;10.080;2023-04-15T03:02:42;99590.00;;;10.73;100.00
16194;BME280;8204;53.582;10.080;2023-04-15T03:05:14;99586.75;;;10.71;100.00
16194;BME280;8204;53.582;10.080;2023-04-15T03:07:43;99587.94;;;10.68;100.00
16194;BME280;8204;53.582;10.080;2023-04-15T03:10:11;99571.41;;;10.68;100.00
16194;BME280;8204;53.582;10.080;2023-04-15T03:12:40;99565.75;;;10.64;100.00
16194;BME280;8204;53.582;10.080;2023-04-15T03:15:09;99546.22;;;10.67;100.00
16194;BME280;8204;53.582;10.080;2023-04-15T03:17:38;99545.03;;;10.69;100.00
16194;BME280;8204;53.582;10.080;2023-04-15T03:20:07;99539.59;;;10.71;100.00
16194;BME280;8204;53.582;10.080;2023-04-15T03:22:39;99540.97;;;10.67;100.00
16194;BME280;8204;53.582;10.080;2023-04-15T03:25:08;99517.84;;;10.70;100.00
16194;BME280;8204;53.582;10.080;2023-04-15T03:27:37;99519.06;;;10.74;100.00
16194;BME280;8204;53.582;10.080;2023-04-15T03:30:07;99533.47;;;10.64;100.00
16194;BME280;8204;53.582;10.080;2023-04-15T03:32:37;99497.81;;;10.63;100.00
16194;BME280;8204;53.582;10.080;2023-04-15T03:35:07;99491.97;;;10.61;100.00
16194;BME280;8204;53.582;10.080;2023-04-15T03:37:39;99458.50;;;10.63;100.00
16194;BME280;8204;53.582;10.080;2023-04-15T03:40:09;99459.13;;;10.65;100.00
16194;BME280;8204;53.582;10.080;2023-04-15T03:42:38;99441.19;;;10.62;100.00
16194;BME280;8204;53.582;10.080;2023-04-15T03:45:07;99423.84;;;10.61;100.00
16194;BME280;8204;53.582;10.080;2023-04-15T03:47:37;99415.38;;;10.59;100.00
16194;BME280;8204;53.582;10.080;2023-04-15T03:50:07;99409.75;;;10.62;100.00
16194;BME280;8204;53.582;10.080;2023-04-15T03:52:40;99424.22;;;10.58;100.00
16194;BME280;8204;53.582;10.080;2023-04-15T03:55:09;99409.34;;;10.58;100.00
16194;BME280;8204;53.582;10.080;2023-04-15T03:57:38;99411.31;;;10.56;100.00
16194;BME280;8204;53.582;10.080;2023-04-15T04:00:08;99374.66;;;10.56;100.00
16194;BME280;8204;53.582;10.080;2023-04-15T04:02:38;99370.22;;;10.57;100.00
16194;BME280;8204;53.582;10.080;2023-04-15T04:05:07;99364.19;;;10.56;100.00
16194;BME280;8204;53.582;10.080;2023-04-15T04:07:36;99384.72;;;10.53;100.00
16194;BME280;8204;53.582;10.080;2023-04-15T04:10:08;99362.75;;;10.54;100.00
16194;BME280;8204;53.582;10.080;2023-04-15T04:12:37;99364.97;;;10.57;100.00
16194;BME280;8204;53.582;10.080;2023-04-15T04:15:07;99343.25;;;10.63;100.00
16194;BME280;8204;53.582;10.080;2023-04-15T04:17:36;99341.25;;;10.65;100.00
16194;BME280;8204;53.582;10.080;2023-04-15T04:20:07;99348.50;;;10.63;100.00
16194;BME280;8204;53.582;10.080;2023-04-15T04:22:37;99361.78;;;10.61;100.00
16194;BME280;8204;53.582;10.080;2023-04-15T04:25:09;99361.41;;;10.64;100.00
16194;BME280;8204;53.582;10.080;2023-04-15T04:27:38;99346.50;;;10.65;100.00
16194;BME280;8204;53.582;10.080;2023-04-15T04:30:07;99345.72;;;10.71;100.00
16194;BME280;8204;53.582;10.080;2023-04-15T04:32:36;99330.63;;;10.73;100.00
16194;BME280;8204;53.582;10.080;2023-04-15T04:35:06;99331.25;;;10.75;100.00
16194;BME280;8204;53.582;10.080;2023-04-15T04:37:36;99334.03;;;10.73;100.00
16194;BME280;8204;53.582;10.080;2023-04-15T04:40:09;99349.34;;;10.70;100.00
16194;BME280;8204;53.582;10.080;2023-04-15T04:42:38;99344.09;;;10.70;100.00
16194;BME280;8204;53.582;10.080;2023-04-15T04:45:08;99332.03;;;10.69;100.00
16194;BME280;8204;53.582;10.080;2023-04-15T04:47:37;99332.78;;;10.63;100.00
16194;BME280;8204;53.582;10.080;2023-04-15T04:50:07;99311.81;;;10.63;100.00
16194;BME280;8204;53.582;10.080;2023-04-15T04:52:38;99305.41;;;10.65;100.00
16194;BME280;8204;53.582;10.080;2023-04-15T04:55:10;99303.75;;;10.58;100.00
16194;BME280;8204;53.582;10.080;2023-04-15T04:57:39;99285.19;;;10.53;100.00
16194;BME280;8204;53.582;10.080;2023-04-15T05:00:09;99264.44;;;10.51;100.00
16194;BME280;8204;53.582;10.080;2023-04-15T05:02:39;99252.97;;;10.52;100.00
16194;BME280;8204;53.582;10.080;2023-04-15T05:05:09;99259.41;;;10.56;100.00
16194;BME280;8204;53.582;10.080;2023-04-15T05:07:39;99262.25;;;10.55;100.00
16194;BME280;8204;53.582;10.080;2023-04-15T05:10:11;99266.69;;;10.61;100.00
16194;BME280;8204;53.582;10.080;2023-04-15T05:12:40;99273.13;;;10.58;100.00
16194;BME280;8204;53.582;10.080;2023-04-15T05:15:10;99274.91;;;10.51;100.00
16194;BME280;8204;53.582;10.080;2023-04-15T05:17:39;99246.53;;;10.55;100.00
16194;BME280;8204;53.582;10.080;2023-04-15T05:20:09;99259.41;;;10.56;100.00
16194;BME280;8204;53.582;10.080;2023-04-15T05:22:38;99247.31;;;10.55;100.00
16194;BME280;8204;53.582;10.080;2023-04-15T05:25:08;99246.94;;;10.58;100.00
16194;BME280;8204;53.582;10.080;2023-04-15T05:27:40;99250.56;;;10.57;100.00
16194;BME280;8204;53.582;10.080;2023-04-15T05:30:10;99254.59;;;10.60;100.00
16194;BME280;8204;53.582;10.080;2023-04-15T05:32:39;99261.84;;;10.58;100.00
16194;BME280;8204;53.582;10.080;2023-04-15T05:35:08;99251.78;;;10.61;100.00
16194;BME280;8204;53.582;10.080;2023-04-15T05:37:37;99270.69;;;10.57;100.00
16194;BME280;8204;53.582;10.080;2023-04-15T05:40:07;99249.94;;;10.55;100.00
16194;BME280;8204;53.582;10.080;2023-04-15T05:42:39;99257.00;;;10.55;100.00
16194;BME280;8204;53.582;10.080;2023-04-15T05:45:09;99259.41;;;10.56;100.00
16194;BME280;8204;53.582;10.080;2023-04-15T05:47:38;99257.84;;;10.62;100.00
16194;BME280;8204;53.582;10.080;2023-04-15T05:50:07;99258.69;;;10.69;100.00
16194;BME280;8204;53.582;10.080;2023-04-15T05:52:37;99272.78;;;10.68;100.00
16194;BME280;8204;53.582;10.080;2023-04-15T05:55:08;99274.78;;;10.66;100.00
16194;BME280;8204;53.582;10.080;2023-04-15T05:57:40;99267.91;;;10.65;100.00
16194;BME280;8204;53.582;10.080;2023-04-15T06:00:10;99264.50;;;10.64;100.00
16194;BME280;8204;53.582;10.080;2023-04-15T06:02:40;99256.66;;;10.64;100.00
16194;BME280;8204;53.582;10.080;2023-04-15T06:05:09;99256.22;;;10.61;100.00
16194;BME280;8204;53.582;10.080;2023-04-15T06:07:39;99257.66;;;10.63;100.00
16194;BME280;8204;53.582;10.080;2023-04-15T06:10:09;99264.22;;;10.53;100.00
16194;BME280;8204;53.582;10.080;2023-04-15T06:12:40;99239.66;;;10.54;100.00
16194;BME280;8204;53.582;10.080;2023-04-15T06:15:10;99223.97;;;10.60;100.00
16194;BME280;8204;53.582;10.080;2023-04-15T06:17:39;99222.97;;;10.61;100.00
16194;BME280;8204;53.582;10.080;2023-04-15T06:20:10;99224.59;;;10.62;100.00
16194;BME280;8204;53.582;10.080;2023-04-15T06:22:39;99227.41;;;10.67;100.00
16194;BME280;8204;53.582;10.080;2023-04-15T06:25:11;99230.28;;;10.72;100.00
16194;BME280;8204;53.582;10.080;2023-04-15T06:27:43;99245.41;;;10.77;100.00
16194;BME280;8204;53.582;10.080;2023-04-15T06:30:12;99237.56;;;10.83;100.00
16194;BME280;8204;53.582;10.080;2023-04-15T06:32:41;99242.81;;;10.89;100.00
16194;BME280;8204;53.582;10.080;2023-04-15T06:35:10;99255.75;;;10.91;100.00
16194;BME280;8204;53.582;10.080;2023-04-15T06:37:39;99257.16;;;10.93;100.00
16194;BME280;8204;53.582;10.080;2023-04-15T06:40:09;99279.72;;;10.88;100.00
16194;BME280;8204;53.582;10.080;2023-04-15T06:42:38;99276.47;;;10.86;100.00
16194;BME280;8204;53.582;10.080;2023-04-15T06:45:10;99255.91;;;10.89;100.00
16194;BME280;8204;53.582;10.080;2023-04-15T06:47:39;99245.47;;;10.96;100.00
16194;BME280;8204;53.582;10.080;2023-04-15T06:50:09;99229.75;;;11.02;100.00
16194;BME280;8204;53.582;10.080;2023-04-15T06:52:39;99234.63;;;11.12;100.00
16194;BME280;8204;53.582;10.080;2023-04-15T06:55:08;99239.88;;;11.18;100.00
16194;BME280;8204;53.582;10.080;2023-04-15T06:57:37;99296.72;;;11.11;100.00
16194;BME280;8204;53.582;10.080;2023-04-15T07:00:11;99340.50;;;11.11;100.00
16194;BME280;8204;53.582;10.080;2023-04-15T07:02:40;99346.13;;;11.08;100.00
16194;BME280;8204;53.582;10.080;2023-04-15T07:05:10;99371.53;;;11.07;100.00
16194;BME280;8204;53.582;10.080;2023-04-15T07:07:39;99386.63;;;11.05;100.00
16194;BME280;8204;53.582;10.080;2023-04-15T07:10:09;99401.75;;;11.03;100.00
16194;BME280;8204;53.582;10.080;2023-04-15T07:12:38;99392.88;;;11.04;100.00
16194;BME280;8204;53.582;10.080;2023-04-15T07:15:10;99415.28;;;11.07;100.00
16194;BME280;8204;53.582;10.080;2023-04-15T07:17:40;99410.84;;;11.07;100.00
16194;BME280;8204;53.582;10.080;2023-04-15T07:20:11;99419.50;;;11.01;100.00
16194;BME280;8204;53.582;10.080;2023-04-15T07:22:40;99423.28;;;10.99;100.00
16194;BME280;8204;53.582;10.080;2023-04-15T07:25:09;99401.56;;;11.05;100.00
16194;BME280;8204;53.582;10.080;2023-04-15T07:27:38;99416.31;;;11.12;100.00
16194;BME280;8204;53.582;10.080;2023-04-15T07:30:10;99425.97;;;11.12;100.00
16194;BME280;8204;53.582;10.080;2023-04-15T07:32:40;99454.75;;;10.99;100.00
16194;BME280;8204;53.582;10.080;2023-04-15T07:35:10;99447.91;;;10.98;100.00
16194;BME280;8204;53.582;10.080;2023-04-15T07:37:40;99435.66;;;11.05;100.00
16194;BME280;8204;53.582;10.080;2023-04-15T07:40:09;99438.44;;;11.03;100.00
16194;BME280;8204;53.582;10.080;2023-04-15T07:42:40;99460.41;;;11.02;100.00
16194;BME280;8204;53.582;10.080;2023-04-15T07:45:11;99455.16;;;11.02;100.00
16194;BME280;8204;53.582;10.080;2023-04-15T07:47:41;99450.56;;;11.04;100.00
16194;BME280;8204;53.582;10.080;2023-04-15T07:50:10;99457.41;;;11.05;100.00
16194;BME280;8204;53.582;10.080;2023-04-15T07:52:40;99464.44;;;10.98;100.00
16194;BME280;8204;53.582;10.080;2023-04-15T07:55:09;99452.31;;;10.97;100.00
16194;BME280;8204;53.582;10.080;2023-04-15T07:57:38;99429.22;;;11.07;100.00
16194;BME280;8204;53.582;10.080;2023-04-15T08:00:08;99416.53;;;11.17;100.00
16194;BME280;8204;53.582;10.080;2023-04-15T08:02:40;99440.75;;;11.19;100.00
16194;BME280;8204;53.582;10.080;2023-04-15T08:05:10;99440.78;;;11.26;100.00
16194;BME280;8204;53.582;10.080;2023-04-15T08:07:40;99467.81;;;11.26;100.00
16194;BME280;8204;53.582;10.080;2023-04-15T08:10:10;99465.00;;;11.28;100.00
16194;BME280;8204;53.582;10.080;2023-04-15T08:12:39;99460.41;;;11.36;100.00
16194;BME280;8204;53.582;10.080;2023-04-15T08:15:09;99477.19;;;11.42;100.00
16194;BME280;8204;53.582;10.080;2023-04-15T08:17:41;99487.69;;;11.48;100.00
16194;BME280;8204;53.582;10.080;2023-04-15T08:20:10;99489.56;;;11.54;100.00
16194;BME280;8204;53.582;10.080;2023-04-15T08:22:40;99488.56;;;11.55;100.00
16194;BME280;8204;53.582;10.080;2023-04-15T08:25:09;99483.78;;;11.65;100.00
16194;BME280;8204;53.582;10.080;2023-04-15T08:27:38;99510.03;;;11.65;100.00
16194;BME280;8204;53.582;10.080;2023-04-15T08:30:08;99532.63;;;11.66;100.00
16194;BME280;8204;53.582;10.080;2023-04-15T08:32:40;99536.69;;;11.68;100.00
16194;BME280;8204;53.582;10.080;2023-04-15T08:35:10;99540.72;;;11.71;100.00
16194;BME280;8204;53.582;10.080;2023-04-15T08:37:38;99538.72;;;11.73;100.00
16194;BME280;8204;53.582;10.080;2023-04-15T08:40:09;99550.22;;;11.72;100.00
16194;BME280;8204;53.582;10.080;2023-04-15T08:42:43;99541.94;;;11.75;100.00
16194;BME280;8204;53.582;10.080;2023-04-15T08:45:12;99558.75;;;11.80;100.00
16194;BME280;8204;53.582;10.080;2023-04-15T08:47:44;99551.28;;;11.84;100.00
16194;BME280;8204;53.582;10.080;2023-04-15T08:50:15;99559.97;;;11.84;100.00
16194;BME280;8204;53.582;10.080;2023-04-15T08:52:45;99546.47;;;11.94;100.00
16194;BME280;8204;53.582;10.080;2023-04-15T08:55:15;99568.72;;;11.98;100.00
16194;BME280;8204;53.582;10.080;2023-04-15T08:57:44;99586.69;;;12.01;100.00
16194;BME280;8204;53.582;10.080;2023-04-15T09:00:14;99579.44;;;12.03;100.00
16194;BME280;8204;53.582;10.080;2023-04-15T09:02:46;99576.00;;;12.02;100.00
16194;BME280;8204;53.582;10.080;2023-04-15T09:05:15;99582.28;;;12.08;100.00
16194;BME280;8204;53.582;10.080;2023-04-15T09:07:46;99569.19;;;12.14;100.00
16194;BME280;8204;53.582;10.080;2023-04-15T09:10:15;99564.56;;;12.23;100.00
16194;BME280;8204;53.582;10.080;2023-04-15T09:12:44;99575.06;;;12.29;100.00
16194;BME280;8204;53.582;10.080;2023-04-15T09:15:12;99594.91;;;12.32;100.00
16194;BME280;8204;53.582;10.080;2023-04-15T09:17:42;99611.47;;;12.32;100.00
16194;BME280;8204;53.582;10.080;2023-04-15T09:20:15;99597.16;;;12.41;100.00
16194;BME280;8204;53.582;10.080;2023-04-15T09:22:46;99599.22;;;12.52;100.00
16194;BME280;8204;53.582;10.080;2023-04-15T09:25:25;99628.94;;;12.65;100.00
16194;BME280;8204;53.582;10.080;2023-04-15T09:27:56;99651.22;;;12.76;100.00
16194;BME280;8204;53.582;10.080;2023-04-15T09:30:27;99659.13;;;12.82;100.00
16194;BME280;8204;53.582;10.080;2023-04-15T09:32:57;99643.81;;;12.99;100.00
16194;BME280;8204;53.582;10.080;2023-04-15T09:35:29;99668.91;;;13.08;100.00
16194;BME280;8204;53.582;10.080;2023-04-15T09:38:02;99690.78;;;13.21;100.00
16194;BME280;8204;53.582;10.080;2023-04-15T09:40:34;99661.66;;;13.42;100.00
16194;BME280;8204;53.582;10.080;2023-04-15T09:43:04;99763.50;;;13.48;100.00
16194;BME280;8204;53.582;10.080;2023-04-15T09:45:35;99788.81;;;13.62;100.00
16194;BME280;8204;53.582;10.080;2023-04-15T09:48:16;99800.56;;;13.72;100.00
16194;BME280;8204;53.582;10.080;2023-04-15T09:50:50;99853.22;;;13.79;100.00
16194;BME280;8204;53.582;10.080;2023-04-15T09:53:21;99869.06;;;13.91;100.00
16194;BME280;8204;53.582;10.080;2023-04-15T09:55:50;99819.41;;;14.08;100.00
16194;BME280;8204;53.582;10.080;2023-04-15T09:58:20;99859.59;;;14.23;100.00
16194;BME280;8204;53.582;10.080;2023-04-15T10:00:50;99926.47;;;14.35;100.00
16194;BME280;8204;53.582;10.080;2023-04-15T10:03:21;99927.91;;;14.50;100.00
16194;BME280;8204;53.582;10.080;2023-04-15T10:05:55;99935.59;;;14.64;100.00
16194;BME280;8204;53.582;10.080;2023-04-15T10:08:26;99953.03;;;14.78;100.00
16194;BME280;8204;53.582;10.080;2023-04-15T10:10:56;100013.28;;;14.88;100.00
16194;BME280;8204;53.582;10.080;2023-04-15T10:13:29;100079.03;;;14.96;100.00
16194;BME280;8204;53.582;10.080;2023-04-15T10:16:00;100103.22;;;15.06;100.00
16194;BME280;8204;53.582;10.080;2023-04-15T10:18:37;100114.16;;;15.16;100.00
16194;BME280;8204;53.582;10.080;2023-04-15T10:21:11;100145.03;;;15.22;100.00
16194;BME280;8204;53.582;10.080;2023-04-15T10:23:44;100108.50;;;15.38;100.00
16194;BME280;8204;53.582;10.080;2023-04-15T10:26:14;100145.88;;;15.48;100.00
16194;BME280;8204;53.582;10.080;2023-04-15T10:28:44;100183.84;;;15.53;100.00
16194;BME280;8204;53.582;10.080;2023-04-15T10:31:15;100164.34;;;15.54;100.00
16194;BME280;8204;53.582;10.080;2023-04-15T10:33:46;100144.44;;;15.65;100.00
16194;BME280;8204;53.582;10.080;2023-04-15T10:36:19;100219.00;;;15.60;100.00
16194;BME280;8204;53.582;10.080;2023-04-15T10:38:48;100225.09;;;15.54;100.00
16194;BME280;8204;53.582;10.080;2023-04-15T10:41:22;100185.47;;;15.67;100.00
16194;BME280;8204;53.582;10.080;2023-04-15T10:43:53;100200.69;;;15.78;100.00
16194;BME280;8204;53.582;10.080;2023-04-15T10:46:33;100214.50;;;15.93;100.00
16194;BME280;8204;53.582;10.080;2023-04-15T10:49:06;100275.28;;;16.06;100.00
16194;BME280;8204;53.582;10.080;2023-04-15T10:51:40;100285.84;;;16.12;100.00
16194;BME280;8204;53.582;10.080;2023-04-15T10:54:13;100321.63;;;16.15;100.00
16194;BME280;8204;53.582;10.080;2023-04-15T10:56:44;100332.59;;;16.25;100.00
16194;BME280;8204;53.582;10.080;2023-04-15T10:59:15;100337.09;;;16.31;100.00
16194;BME280;8204;53.582;10.080;2023-04-15T11:01:52;100347.66;;;16.44;100.00
16194;BME280;8204;53.582;10.080;2023-04-15T11:04:52;100326.69;;;16.55;100.00
16194;BME280;8204;53.582;10.080;2023-04-15T11:07:39;100388.16;;;16.57;100.00
16194;BME280;8204;53.582;10.080;2023-04-15T11:13:26;100497.03;;;16.48;100.00
16194;BME280;8204;53.582;10.080;2023-04-15T11:16:00;100503.25;;;16.27;100.00
16194;BME280;8204;53.582;10.080;2023-04-15T11:18:33;100492.25;;;16.24;100.00
16194;BME280;8204;53.582;10.080;2023-04-15T11:21:05;100490.41;;;16.18;100.00
16194;BME280;8204;53.582;10.080;2023-04-15T11:23:38;100480.66;;;16.18;100.00
16194;BME280;8204;53.582;10.080;2023-04-15T11:26:10;100507.69;;;16.14;100.00
16194;BME280;8204;53.582;10.080;2023-04-15T11:28:41;100513.19;;;16.12;100.00
16194;BME280;8204;53.582;10.080;2023-04-15T11:31:11;100510.94;;;16.09;100.00
16194;BME280;8204;53.582;10.080;2023-04-15T11:33:46;100504.63;;;16.10;100.00
16194;BME280;8204;53.582;10.080;2023-04-15T11:36:15;100513.16;;;16.06;100.00
16194;BME280;8204;53.582;10.080;2023-04-15T11:38:47;100539.34;;;15.95;100.00
16194;BME280;8204;53.582;10.080;2023-04-15T11:41:19;100566.56;;;15.89;100.00
16194;BME280;8204;53.582;10.080;2023-04-15T11:43:49;100559.06;;;15.92;100.00
16194;BME280;8204;53.582;10.080;2023-04-15T11:46:19;100587.59;;;16.03;100.00
16194;BME280;8204;53.582;10.080;2023-04-15T11:48:48;100588.88;;;16.20;100.00
16194;BME280;8204;53.582;10.080;2023-04-15T11:51:17;100621.38;;;16.20;100.00
16194;BME280;8204;53.582;10.080;2023-04-15T11:53:53;100591.53;;;16.26;100.00
16194;BME280;8204;53.582;10.080;2023-04-15T11:56:24;100604.22;;;16.37;100.00
16194;BME280;8204;53.582;10.080;2023-04-15T11:58:55;100611.97;;;16.45;100.00
16194;BME280;8204;53.582;10.080;2023-04-15T12:01:30;100608.13;;;16.48;100.00
16194;BME280;8204;53.582;10.080;2023-04-15T12:04:00;100619.28;;;16.50;100.00
16194;BME280;8204;53.582;10.080;2023-04-15T12:06:31;100659.81;;;16.50;100.00
16194;BME280;8204;53.582;10.080;2023-04-15T12:09:11;100653.09;;;16.48;100.00
16194;BME280;8204;53.582;10.080;2023-04-15T12:11:43;100657.09;;;16.37;100.00
16194;BME280;8204;53.582;10.080;2023-04-15T12:14:23;100635.16;;;16.43;100.00
16194;BME280;8204;53.582;10.080;2023-04-15T12:16:56;100650.56;;;16.33;100.00
16194;BME280;8204;53.582;10.080;2023-04-15T12:19:28;100664.00;;;16.32;100.00
16194;BME280;8204;53.582;10.080;2023-04-15T12:21:59;100654.59;;;16.23;100.00
16194;BME280;8204;53.582;10.080;2023-04-15T12:24:34;100628.13;;;16.23;100.00
16194;BME280;8204;53.582;10.080;2023-04-15T12:27:04;100647.66;;;16.22;100.00
16194;BME280;8204;53.582;10.080;2023-04-15T12:29:34;100663.09;;;16.18;100.00
16194;BME280;8204;53.582;10.080;2023-04-15T12:32:06;100679.75;;;16.12;100.00
16194;BME280;8204;53.582;10.080;2023-04-15T12:34:36;100688.47;;;16.07;100.00
16194;BME280;8204;53.582;10.080;2023-04-15T12:37:07;100673.63;;;16.12;100.00
16194;BME280;8204;53.582;10.080;2023-04-15T12:39:41;100705.19;;;16.13;100.00
16194;BME280;8204;53.582;10.080;2023-04-15T12:42:11;100711.50;;;16.19;100.00
16194;BME280;8204;53.582;10.080;2023-04-15T12:44:40;100715.97;;;16.18;100.00
16194;BME280;8204;53.582;10.080;2023-04-15T12:47:10;100713.75;;;16.22;100.00
16194;BME280;8204;53.582;10.080;2023-04-15T12:49:39;100729.41;;;16.23;100.00
16194;BME280;8204;53.582;10.080;2023-04-15T12:52:08;100750.94;;;16.20;100.00
16194;BME280;8204;53.582;10.080;2023-04-15T12:54:41;100744.06;;;16.26;100.00
16194;BME280;8204;53.582;10.080;2023-04-15T12:57:10;100740.69;;;16.32;100.00
16194;BME280;8204;53.582;10.080;2023-04-15T12:59:39;100768.97;;;16.31;100.00
16194;BME280;8204;53.582;10.080;2023-04-15T13:02:08;100763.69;;;16.31;100.00
16194;BME280;8204;53.582;10.080;2023-04-15T13:04:37;100779.13;;;16.28;100.00
16194;BME280;8204;53.582;10.080;2023-04-15T13:07:07;100794.56;;;16.31;100.00